Time,TemperatureF,DewpointF,PressureIn,WindDirection,WindDirectionDegrees,WindSpeedMPH,WindSpeedGustMPH,Humidity,HourlyPrecipIn,Conditions,Clouds,dailyrainin,SoftwareType,DateUTC
2014-01-26 00:12:00,19.0,16.0,29.18,NE,49,0.0,-999.0,89,-99.99,,,-99.99,,2014-01-26 05:12:00,
2014-01-26 00:22:00,20.0,17.0,29.12,NE,49,0.0,-999.0,89,-99.99,,,-99.99,,2014-01-26 05:22:00,
2014-01-26 00:43:00,19.0,16.0,29.18,NE,49,0.0,-999.0,89,-99.99,,,-99.99,,2014-01-26 05:43:00,
2014-01-26 00:52:00,19.0,17.0,29.12,NE,49,0.0,-999.0,90,-99.99,,,-99.99,,2014-01-26 05:52:00,
2014-01-26 01:12:00,19.0,17.0,29.18,NE,49,0.0,-999.0,90,-99.99,,,-99.99,,2014-01-26 06:12:00,
2014-01-26 01:22:00,19.0,17.0,29.12,NE,49,0.0,-999.0,91,-99.99,,,-99.99,,2014-01-26 06:22:00,
2014-01-26 01:43:00,18.0,16.0,29.19,NE,49,0.0,-999.0,91,-99.99,,,-99.99,,2014-01-26 06:43:00,
2014-01-26 01:52:00,18.0,16.0,29.20,ESE,112,0.0,-999.0,90,-99.99,,,-99.99,,2014-01-26 06:52:00,
2014-01-26 02:02:00,18.0,16.0,29.20,ESE,112,0.0,-999.0,90,-99.99,,,-99.99,,2014-01-26 07:02:00,
2014-01-26 02:12:00,18.0,16.0,29.20,ESE,112,0.0,-999.0,90,-99.99,,,-99.99,,2014-01-26 07:12:00,
2014-01-26 02:22:00,20.0,16.0,29.14,ENE,70,1.0,-999.0,86,-99.99,,,-99.99,,2014-01-26 07:22:00,
2014-01-26 02:42:00,19.0,16.0,29.21,SE,126,0.0,-999.0,86,-99.99,,,-99.99,,2014-01-26 07:42:00,
2014-01-26 02:53:00,19.0,13.0,29.18,SE,137,2.0,-999.0,77,-99.99,,,-99.99,,2014-01-26 07:53:00,
2014-01-26 03:12:00,18.0,11.0,29.25,SE,145,3.0,-999.0,74,-99.99,,,-99.99,,2014-01-26 08:12:00,
2014-01-26 03:22:00,17.0,9.0,29.22,ESE,108,3.0,-999.0,71,-99.99,,,-99.99,,2014-01-26 08:22:00,
2014-01-26 03:42:00,15.0,6.0,29.29,North,1,4.0,-999.0,67,-99.99,,,-99.99,,2014-01-26 08:42:00,
2014-01-26 03:52:00,14.0,6.0,29.25,South,175,3.0,-999.0,70,-99.99,,,-99.99,,2014-01-26 08:52:00,
2014-01-26 04:11:00,13.0,7.0,29.33,WSW,243,4.0,-999.0,78,-99.99,,,-99.99,,2014-01-26 09:11:00,
2014-01-26 04:22:00,12.0,6.0,29.28,NE,50,4.0,-999.0,78,-99.99,,,-99.99,,2014-01-26 09:22:00,
2014-01-26 04:43:00,11.0,5.0,29.36,South,178,4.0,-999.0,76,-99.99,,,-99.99,,2014-01-26 09:43:00,
2014-01-26 06:42:00,1.0,-6.0,29.48,South,183,1.0,-999.0,71,-99.99,,,-99.99,,2014-01-26 11:42:00,
2014-01-26 06:52:00,1.0,-7.0,29.43,SSW,198,3.0,-999.0,68,-99.99,,,-99.99,,2014-01-26 11:52:00,
2014-01-26 07:12:00,1.0,-7.0,29.50,SSE,166,2.0,-999.0,68,-99.99,,,-99.99,,2014-01-26 12:12:00,
2014-01-26 07:22:00,0.0,-10.0,29.45,South,175,3.0,-999.0,63,-99.99,,,-99.99,,2014-01-26 12:22:00,
2014-01-26 07:42:00,0.0,-9.0,29.52,SSW,201,2.0,-999.0,66,-99.99,,,-99.99,,2014-01-26 12:42:00,
2014-01-26 07:52:00,-1.0,-8.0,29.46,South,180,1.0,-999.0,70,-99.99,,,-99.99,,2014-01-26 12:52:00,
2014-01-26 08:11:00,-1.0,-9.0,29.54,South,183,3.0,-999.0,69,-99.99,,,-99.99,,2014-01-26 13:11:00,
2014-01-26 08:22:00,0.0,-9.0,29.49,East,97,2.0,-999.0,65,-99.99,,,-99.99,,2014-01-26 13:22:00,
2014-01-26 08:42:00,0.0,-9.0,29.56,SE,133,3.0,-999.0,64,-99.99,,,-99.99,,2014-01-26 13:42:00,
2014-01-26 08:52:00,0.0,-9.0,29.57,SSW,199,3.0,-999.0,64,-99.99,,,-99.99,,2014-01-26 13:52:00,
2014-01-26 09:12:00,1.0,-9.0,29.58,SE,142,1.0,-999.0,61,-99.99,,,-99.99,,2014-01-26 14:12:00,
2014-01-26 09:22:00,2.0,-9.0,29.52,South,184,3.0,-999.0,59,-99.99,,,-99.99,,2014-01-26 14:22:00,
2014-01-26 09:42:00,1.0,-10.0,29.58,ESE,109,2.0,-999.0,59,-99.99,,,-99.99,,2014-01-26 14:42:00,
2014-01-26 09:52:00,2.0,-10.0,29.53,SE,144,2.0,-999.0,57,-99.99,,,-99.99,,2014-01-26 14:52:00,
2014-01-26 10:12:00,2.0,-9.0,29.60,South,178,2.0,-999.0,58,-99.99,,,-99.99,,2014-01-26 15:12:00,
2014-01-26 10:22:00,3.0,-9.0,29.54,WSW,243,2.0,-999.0,56,-99.99,,,-99.99,,2014-01-26 15:22:00,
2014-01-26 10:43:00,2.0,-10.0,29.61,SE,134,2.0,-999.0,56,-99.99,,,-99.99,,2014-01-26 15:43:00,
2014-01-26 10:53:00,4.0,-8.0,29.54,East,99,2.0,-999.0,56,-99.99,,,-99.99,,2014-01-26 15:53:00,
2014-01-26 11:13:00,4.0,-9.0,29.61,ENE,64,2.0,-999.0,55,-99.99,,,-99.99,,2014-01-26 16:13:00,
2014-01-26 11:23:00,5.0,-8.0,29.61,ENE,61,2.0,-999.0,54,-99.99,,,-99.99,,2014-01-26 16:23:00,
2014-01-26 11:43:00,6.0,-8.0,29.61,NE,38,1.0,-999.0,52,-99.99,,,-99.99,,2014-01-26 16:43:00,
2014-01-26 11:53:00,5.0,-9.0,29.54,East,79,3.0,-999.0,52,-99.99,,,-99.99,,2014-01-26 16:53:00,
2014-01-26 12:13:00,5.0,-9.0,29.61,NE,52,3.0,-999.0,52,-99.99,,,-99.99,,2014-01-26 17:13:00,
2014-01-26 12:23:00,6.0,-8.0,29.56,ENE,57,3.0,-999.0,52,-99.99,,,-99.99,,2014-01-26 17:23:00,
2014-01-26 12:43:00,6.0,-8.0,29.62,East,100,2.0,-999.0,52,-99.99,,,-99.99,,2014-01-26 17:43:00,
2014-01-26 12:52:00,8.0,-7.0,29.55,ENE,60,1.0,-999.0,50,-99.99,,,-99.99,,2014-01-26 17:52:00,
2014-01-26 13:12:00,8.0,-7.0,29.62,ENE,64,1.0,-999.0,49,-99.99,,,-99.99,,2014-01-26 18:12:00,
2014-01-26 13:22:00,9.0,-7.0,29.54,SSW,201,2.0,-999.0,48,-99.99,,,-99.99,,2014-01-26 18:22:00,
2014-01-26 13:42:00,9.0,-6.0,29.62,SSW,201,3.0,-999.0,49,-99.99,,,-99.99,,2014-01-26 18:42:00,
2014-01-26 13:53:00,10.0,-5.0,29.56,NE,35,1.0,-999.0,49,-99.99,,,-99.99,,2014-01-26 18:53:00,
2014-01-26 14:11:00,10.0,-7.0,29.64,SE,135,4.0,-999.0,46,-99.99,,,-99.99,,2014-01-26 19:11:00,
2014-01-26 14:22:00,11.0,-6.0,29.63,SE,142,2.0,-999.0,46,-99.99,,,-99.99,,2014-01-26 19:22:00,
2014-01-26 14:32:00,11.0,-6.0,29.63,SE,142,2.0,-999.0,46,-99.99,,,-99.99,,2014-01-26 19:32:00,
2014-01-26 14:42:00,11.0,-6.0,29.63,SE,142,2.0,-999.0,46,-99.99,,,-99.99,,2014-01-26 19:42:00,
2014-01-26 14:52:00,12.0,-5.0,29.56,South,170,3.0,-999.0,45,-99.99,,,-99.99,,2014-01-26 19:52:00,
2014-01-26 15:12:00,12.0,-6.0,29.64,East,99,3.0,-999.0,44,-99.99,,,-99.99,,2014-01-26 20:12:00,
2014-01-26 15:42:00,12.0,-5.0,29.63,ENE,78,2.0,-999.0,46,-99.99,,,-99.99,,2014-01-26 20:42:00,
2014-01-26 15:53:00,11.0,-6.0,29.55,ENE,73,1.0,-999.0,46,-99.99,,,-99.99,,2014-01-26 20:53:00,
2014-01-26 16:11:00,11.0,-5.0,29.65,East,98,0.0,-999.0,47,-99.99,,,-99.99,,2014-01-26 21:11:00,
2014-01-26 16:22:00,11.0,-5.0,29.57,East,99,0.0,-999.0,48,-99.99,,,-99.99,,2014-01-26 21:22:00,
2014-01-26 16:43:00,10.0,-6.0,29.65,East,99,0.0,-999.0,48,-99.99,,,-99.99,,2014-01-26 21:43:00,
2014-01-26 16:54:00,10.0,-5.0,29.57,East,99,0.0,-999.0,49,-99.99,,,-99.99,,2014-01-26 21:54:00,
2014-01-26 17:13:00,10.0,-5.0,29.65,East,99,0.0,-999.0,50,-99.99,,,-99.99,,2014-01-26 22:13:00,
2014-01-26 17:23:00,9.0,-5.0,29.59,East,99,0.0,-999.0,53,-99.99,,,-99.99,,2014-01-26 22:23:00,
2014-01-26 17:43:00,9.0,-4.0,29.68,NNE,28,0.0,-999.0,55,-99.99,,,-99.99,,2014-01-26 22:43:00,
2014-01-26 17:53:00,9.0,-3.0,29.62,NNE,29,0.0,-999.0,57,-99.99,,,-99.99,,2014-01-26 22:53:00,
2014-01-26 18:12:00,8.0,-3.0,29.70,NNE,29,0.0,-999.0,59,-99.99,,,-99.99,,2014-01-26 23:12:00,
2014-01-26 18:23:00,9.0,-3.0,29.62,NNE,29,0.0,-999.0,57,-99.99,,,-99.99,,2014-01-26 23:23:00,
2014-01-26 18:42:00,9.0,-3.0,29.67,NNE,29,0.0,-999.0,57,-99.99,,,-99.99,,2014-01-26 23:42:00,
2014-01-26 18:53:00,9.0,-3.0,29.60,NNE,29,0.0,-999.0,58,-99.99,,,-99.99,,2014-01-26 23:53:00,
2014-01-26 19:12:00,7.0,-4.0,29.70,NNE,29,0.0,-999.0,60,-99.99,,,-99.99,,2014-01-27 00:12:00,
2014-01-26 19:22:00,6.0,-3.0,29.62,NNE,29,0.0,-999.0,66,-99.99,,,-99.99,,2014-01-27 00:22:00,
2014-01-26 19:42:00,6.0,-3.0,29.70,NNE,29,0.0,-999.0,66,-99.99,,,-99.99,,2014-01-27 00:42:00,
2014-01-26 19:52:00,7.0,-2.0,29.60,NNE,29,0.0,-999.0,65,-99.99,,,-99.99,,2014-01-27 00:52:00,
2014-01-26 20:11:00,7.0,-2.0,29.69,NNE,29,0.0,-999.0,65,-99.99,,,-99.99,,2014-01-27 01:11:00,
2014-01-26 20:22:00,9.0,0.0,29.62,NNE,29,0.0,-999.0,65,-99.99,,,-99.99,,2014-01-27 01:22:00,
2014-01-26 20:42:00,9.0,-1.0,29.71,NNE,29,0.0,-999.0,64,-99.99,,,-99.99,,2014-01-27 01:42:00,
2014-01-26 20:52:00,9.0,-1.0,29.62,NNE,29,0.0,-999.0,64,-99.99,,,-99.99,,2014-01-27 01:52:00,
2014-01-26 21:11:00,9.0,0.0,29.70,NNE,29,0.0,-999.0,67,-99.99,,,-99.99,,2014-01-27 02:11:00,
2014-01-26 21:22:00,10.0,2.0,29.61,NE,36,0.0,-999.0,68,-99.99,,,-99.99,,2014-01-27 02:22:00,
2014-01-26 21:42:00,10.0,0.0,29.70,NNW,334,0.0,-999.0,62,-99.99,,,-99.99,,2014-01-27 02:42:00,
2014-01-26 21:53:00,11.0,0.0,29.70,NNW,334,0.0,-999.0,60,-99.99,,,-99.99,,2014-01-27 02:53:00,
2014-01-26 22:02:00,11.0,0.0,29.70,NNW,334,0.0,-999.0,60,-99.99,,,-99.99,,2014-01-27 03:02:00,
2014-01-26 22:11:00,11.0,0.0,29.70,NNW,334,0.0,-999.0,60,-99.99,,,-99.99,,2014-01-27 03:11:00,
2014-01-26 22:22:00,10.0,2.0,29.62,NNW,335,0.0,-999.0,69,-99.99,,,-99.99,,2014-01-27 03:22:00,
2014-01-26 22:43:00,10.0,1.0,29.71,NNW,339,0.0,-999.0,66,-99.99,,,-99.99,,2014-01-27 03:43:00,
2014-01-26 22:53:00,12.0,3.0,29.62,NNW,339,0.0,-999.0,66,-99.99,,,-99.99,,2014-01-27 03:53:00,
2014-01-26 23:13:00,12.0,2.0,29.70,NNW,339,0.0,-999.0,64,-99.99,,,-99.99,,2014-01-27 04:13:00,
2014-01-26 23:23:00,13.0,3.0,29.60,ENE,75,2.0,-999.0,63,-99.99,,,-99.99,,2014-01-27 04:23:00,
2014-01-26 23:43:00,13.0,2.0,29.69,NE,48,1.0,-999.0,62,-99.99,,,-99.99,,2014-01-27 04:43:00,
2014-01-26 23:53:00,14.0,4.0,29.61,NE,48,0.0,-999.0,63,-99.99,,,-99.99,,2014-01-27 04:53:00,